sensor_id;sensor_type;location;lat;lon;timestamp;temperature;humidity
20182;DHT22;10250;50.756;6.172;2022-10-16T00:01:51;13.60;99.90
20182;DHT22;10250;50.756;6.172;2022-10-16T00:03:51;13.70;99.90
20182;DHT22;10250;50.756;6.172;2022-10-16T00:05:52;13.70;99.90
20182;DHT22;10250;50.756;6.172;2022-10-16T00:07:53;13.60;99.90
20182;DHT22;10250;50.756;6.172;2022-10-16T00:09:53;13.60;99.90
20182;DHT22;10250;50.756;6.172;2022-10-16T00:11:54;13.50;99.90
20182;DHT22;10250;50.756;6.172;2022-10-16T00:13:57;13.50;99.90
20182;DHT22;10250;50.756;6.172;2022-10-16T00:16:00;13.60;99.90
20182;DHT22;10250;50.756;6.172;2022-10-16T00:18:00;13.60;99.90
20182;DHT22;10250;50.756;6.172;2022-10-16T00:20:01;13.60;99.90
20182;DHT22;10250;50.756;6.172;2022-10-16T00:22:02;13.60;99.90
20182;DHT22;10250;50.756;6.172;2022-10-16T00:24:05;13.60;99.90
20182;DHT22;10250;50.756;6.172;2022-10-16T00:26:13;13.50;99.90
20182;DHT22;10250;50.756;6.172;2022-10-16T00:28:13;13.50;99.90
20182;DHT22;10250;50.756;6.172;2022-10-16T00:30:14;13.50;99.90
20182;DHT22;10250;50.756;6.172;2022-10-16T00:32:14;13.40;99.90
20182;DHT22;10250;50.756;6.172;2022-10-16T00:34:15;13.50;99.90
20182;DHT22;10250;50.756;6.172;2022-10-16T00:36:18;13.40;99.90
20182;DHT22;10250;50.756;6.172;2022-10-16T00:38:18;13.40;99.90
20182;DHT22;10250;50.756;6.172;2022-10-16T00:40:19;13.40;99.90
20182;DHT22;10250;50.756;6.172;2022-10-16T00:42:19;13.40;99.90
20182;DHT22;10250;50.756;6.172;2022-10-16T00:46:42;13.40;99.90
20182;DHT22;10250;50.756;6.172;2022-10-16T00:48:53;13.40;99.90
20182;DHT22;10250;50.756;6.172;2022-10-16T00:50:56;13.40;99.90
20182;DHT22;10250;50.756;6.172;2022-10-16T00:52:57;13.40;99.90
20182;DHT22;10250;50.756;6.172;2022-10-16T00:55:00;13.40;99.90
20182;DHT22;10250;50.756;6.172;2022-10-16T00:57:04;13.30;99.90
20182;DHT22;10250;50.756;6.172;2022-10-16T00:59:14;13.30;99.90
20182;DHT22;10250;50.756;6.172;2022-10-16T01:01:15;13.20;99.90
20182;DHT22;10250;50.756;6.172;2022-10-16T01:03:29;13.10;99.90
20182;DHT22;10250;50.756;6.172;2022-10-16T01:05:45;13.10;99.90
20182;DHT22;10250;50.756;6.172;2022-10-16T01:08:13;13.10;99.90
20182;DHT22;10250;50.756;6.172;2022-10-16T01:13:31;13.30;99.90
20182;DHT22;10250;50.756;6.172;2022-10-16T01:17:35;13.20;99.90
20182;DHT22;10250;50.756;6.172;2022-10-16T01:19:51;13.30;99.90
20182;DHT22;10250;50.756;6.172;2022-10-16T01:21:58;13.30;99.90
20182;DHT22;10250;50.756;6.172;2022-10-16T01:24:19;13.30;99.90
20182;DHT22;10250;50.756;6.172;2022-10-16T01:26:58;13.20;99.90
20182;DHT22;10250;50.756;6.172;2022-10-16T01:29:26;13.30;99.90
20182;DHT22;10250;50.756;6.172;2022-10-16T01:31:32;13.20;99.90
20182;DHT22;10250;50.756;6.172;2022-10-16T01:34:15;13.20;99.90
20182;DHT22;10250;50.756;6.172;2022-10-16T01:36:22;13.20;99.90
20182;DHT22;10250;50.756;6.172;2022-10-16T01:38:30;13.30;99.90
20182;DHT22;10250;50.756;6.172;2022-10-16T01:40:34;13.20;99.90
20182;DHT22;10250;50.756;6.172;2022-10-16T01:42:43;13.20;99.90
20182;DHT22;10250;50.756;6.172;2022-10-16T01:44:47;13.20;99.90
20182;DHT22;10250;50.756;6.172;2022-10-16T01:46:50;13.30;99.90
20182;DHT22;10250;50.756;6.172;2022-10-16T01:48:52;13.40;99.90
20182;DHT22;10250;50.756;6.172;2022-10-16T01:51:01;13.40;99.90
20182;DHT22;10250;50.756;6.172;2022-10-16T01:53:04;13.40;99.90
20182;DHT22;10250;50.756;6.172;2022-10-16T01:55:06;13.40;99.90
20182;DHT22;10250;50.756;6.172;2022-10-16T01:57:08;13.50;99.90
20182;DHT22;10250;50.756;6.172;2022-10-16T01:59:18;13.30;99.90
20182;DHT22;10250;50.756;6.172;2022-10-16T02:01:22;13.30;99.90
20182;DHT22;10250;50.756;6.172;2022-10-16T02:03:23;13.30;99.90
20182;DHT22;10250;50.756;6.172;2022-10-16T02:07:24;13.40;99.90
20182;DHT22;10250;50.756;6.172;2022-10-16T02:09:25;13.50;99.90
20182;DHT22;10250;50.756;6.172;2022-10-16T02:11:26;13.50;99.90
20182;DHT22;10250;50.756;6.172;2022-10-16T02:13:33;13.50;99.90
20182;DHT22;10250;50.756;6.172;2022-10-16T02:15:36;13.50;99.90
20182;DHT22;10250;50.756;6.172;2022-10-16T02:17:37;13.70;99.90
20182;DHT22;10250;50.756;6.172;2022-10-16T02:19:38;13.70;99.90
20182;DHT22;10250;50.756;6.172;2022-10-16T02:21:56;13.70;99.90
20182;DHT22;10250;50.756;6.172;2022-10-16T02:28:59;13.50;99.90
20182;DHT22;10250;50.756;6.172;2022-10-16T02:31:04;13.60;99.90
20182;DHT22;10250;50.756;6.172;2022-10-16T02:33:08;13.60;99.90
20182;DHT22;10250;50.756;6.172;2022-10-16T02:35:10;13.60;99.90
20182;DHT22;10250;50.756;6.172;2022-10-16T02:37:11;13.60;99.90
20182;DHT22;10250;50.756;6.172;2022-10-16T02:39:13;13.60;99.90
20182;DHT22;10250;50.756;6.172;2022-10-16T02:41:14;13.60;99.90
20182;DHT22;10250;50.756;6.172;2022-10-16T02:43:15;13.50;99.90
20182;DHT22;10250;50.756;6.172;2022-10-16T02:45:16;13.60;99.90
20182;DHT22;10250;50.756;6.172;2022-10-16T02:47:17;13.60;99.90
20182;DHT22;10250;50.756;6.172;2022-10-16T02:49:17;13.60;99.90
20182;DHT22;10250;50.756;6.172;2022-10-16T02:51:18;13.50;99.90
20182;DHT22;10250;50.756;6.172;2022-10-16T02:53:19;13.50;99.90
20182;DHT22;10250;50.756;6.172;2022-10-16T02:55:20;13.60;99.90
20182;DHT22;10250;50.756;6.172;2022-10-16T02:57:20;13.60;99.90
20182;DHT22;10250;50.756;6.172;2022-10-16T02:59:21;13.60;99.90
20182;DHT22;10250;50.756;6.172;2022-10-16T03:01:22;13.70;99.90
20182;DHT22;10250;50.756;6.172;2022-10-16T03:03:22;13.80;99.90
20182;DHT22;10250;50.756;6.172;2022-10-16T03:05:23;13.70;99.90
20182;DHT22;10250;50.756;6.172;2022-10-16T03:07:23;13.60;99.90
20182;DHT22;10250;50.756;6.172;2022-10-16T03:09:24;13.60;99.90
20182;DHT22;10250;50.756;6.172;2022-10-16T03:11:24;13.50;99.90
20182;DHT22;10250;50.756;6.172;2022-10-16T03:13:25;13.60;99.90
20182;DHT22;10250;50.756;6.172;2022-10-16T03:15:25;13.60;99.90
20182;DHT22;10250;50.756;6.172;2022-10-16T03:17:28;13.60;99.90
20182;DHT22;10250;50.756;6.172;2022-10-16T03:19:29;13.60;99.90
20182;DHT22;10250;50.756;6.172;2022-10-16T03:21:29;13.50;99.90
20182;DHT22;10250;50.756;6.172;2022-10-16T03:23:30;13.50;99.90
20182;DHT22;10250;50.756;6.172;2022-10-16T03:25:30;13.60;99.90
20182;DHT22;10250;50.756;6.172;2022-10-16T03:27:31;13.60;99.90
20182;DHT22;10250;50.756;6.172;2022-10-16T03:29:32;13.50;99.90
20182;DHT22;10250;50.756;6.172;2022-10-16T03:31:33;13.60;99.90
20182;DHT22;10250;50.756;6.172;2022-10-16T03:33:33;13.60;99.90
20182;DHT22;10250;50.756;6.172;2022-10-16T03:35:34;13.60;99.90
20182;DHT22;10250;50.756;6.172;2022-10-16T03:37:35;13.60;99.90
20182;DHT22;10250;50.756;6.172;2022-10-16T03:39:35;13.60;99.90
20182;DHT22;10250;50.756;6.172;2022-10-16T03:41:36;13.60;99.90
20182;DHT22;10250;50.756;6.172;2022-10-16T03:43:36;13.50;99.90
20182;DHT22;10250;50.756;6.172;2022-10-16T03:45:37;13.50;99.90
20182;DHT22;10250;50.756;6.172;2022-10-16T03:47:37;13.50;99.90
20182;DHT22;10250;50.756;6.172;2022-10-16T03:49:38;13.50;99.90
20182;DHT22;10250;50.756;6.172;2022-10-16T03:51:38;13.50;99.90
20182;DHT22;10250;50.756;6.172;2022-10-16T03:53:39;13.50;99.90
20182;DHT22;10250;50.756;6.172;2022-10-16T03:55:41;13.60;99.90
20182;DHT22;10250;50.756;6.172;2022-10-16T03:57:42;13.50;99.90
20182;DHT22;10250;50.756;6.172;2022-10-16T03:59:43;13.40;99.90
20182;DHT22;10250;50.756;6.172;2022-10-16T04:01:43;13.50;99.90
20182;DHT22;10250;50.756;6.172;2022-10-16T04:03:44;13.40;99.90
20182;DHT22;10250;50.756;6.172;2022-10-16T04:05:44;13.40;99.90
20182;DHT22;10250;50.756;6.172;2022-10-16T04:07:45;13.30;99.90
20182;DHT22;10250;50.756;6.172;2022-10-16T04:09:46;13.40;99.90
20182;DHT22;10250;50.756;6.172;2022-10-16T04:11:47;13.40;99.90
20182;DHT22;10250;50.756;6.172;2022-10-16T04:13:47;13.30;99.90
20182;DHT22;10250;50.756;6.172;2022-10-16T04:15:48;13.20;99.90
20182;DHT22;10250;50.756;6.172;2022-10-16T04:17:49;13.20;99.90
20182;DHT22;10250;50.756;6.172;2022-10-16T04:19:50;13.20;99.90
20182;DHT22;10250;50.756;6.172;2022-10-16T04:21:50;13.20;99.90
20182;DHT22;10250;50.756;6.172;2022-10-16T04:23:51;13.20;99.90
20182;DHT22;10250;50.756;6.172;2022-10-16T04:25:51;13.40;99.90
20182;DHT22;10250;50.756;6.172;2022-10-16T04:27:53;13.40;99.90
20182;DHT22;10250;50.756;6.172;2022-10-16T04:29:54;13.30;99.90
20182;DHT22;10250;50.756;6.172;2022-10-16T04:31:54;13.30;99.90
20182;DHT22;10250;50.756;6.172;2022-10-16T04:33:55;13.30;99.90
20182;DHT22;10250;50.756;6.172;2022-10-16T04:35:57;13.20;99.90
20182;DHT22;10250;50.756;6.172;2022-10-16T04:37:58;13.20;99.90
20182;DHT22;10250;50.756;6.172;2022-10-16T04:39:58;13.20;99.90
20182;DHT22;10250;50.756;6.172;2022-10-16T04:41:59;13.30;99.90
20182;DHT22;10250;50.756;6.172;2022-10-16T04:44:00;13.30;99.90
20182;DHT22;10250;50.756;6.172;2022-10-16T04:46:00;13.30;99.90
20182;DHT22;10250;50.756;6.172;2022-10-16T04:48:02;13.20;99.90
20182;DHT22;10250;50.756;6.172;2022-10-16T04:50:02;13.20;99.90
20182;DHT22;10250;50.756;6.172;2022-10-16T04:52:03;13.20;99.90
20182;DHT22;10250;50.756;6.172;2022-10-16T04:54:04;13.20;99.90
20182;DHT22;10250;50.756;6.172;2022-10-16T04:56:05;13.00;99.90
20182;DHT22;10250;50.756;6.172;2022-10-16T04:58:05;13.00;99.90
20182;DHT22;10250;50.756;6.172;2022-10-16T05:00:06;13.10;99.90
20182;DHT22;10250;50.756;6.172;2022-10-16T05:02:08;13.20;99.90
20182;DHT22;10250;50.756;6.172;2022-10-16T05:04:09;13.00;99.90
20182;DHT22;10250;50.756;6.172;2022-10-16T05:06:10;13.00;99.90
20182;DHT22;10250;50.756;6.172;2022-10-16T05:08:12;13.00;99.90
20182;DHT22;10250;50.756;6.172;2022-10-16T05:10:13;13.10;99.90
20182;DHT22;10250;50.756;6.172;2022-10-16T05:12:13;13.10;99.90
20182;DHT22;10250;50.756;6.172;2022-10-16T05:14:14;13.00;99.90
20182;DHT22;10250;50.756;6.172;2022-10-16T05:16:14;12.90;99.90
20182;DHT22;10250;50.756;6.172;2022-10-16T05:18:15;12.90;99.90
20182;DHT22;10250;50.756;6.172;2022-10-16T05:20:16;12.80;99.90
20182;DHT22;10250;50.756;6.172;2022-10-16T05:22:17;12.60;99.90
20182;DHT22;10250;50.756;6.172;2022-10-16T05:24:18;12.50;99.90
20182;DHT22;10250;50.756;6.172;2022-10-16T05:26:18;12.50;99.90
20182;DHT22;10250;50.756;6.172;2022-10-16T05:28:19;12.60;99.90
20182;DHT22;10250;50.756;6.172;2022-10-16T05:30:19;12.60;99.90
20182;DHT22;10250;50.756;6.172;2022-10-16T05:32:20;12.40;99.90
20182;DHT22;10250;50.756;6.172;2022-10-16T05:34:21;12.30;99.90
20182;DHT22;10250;50.756;6.172;2022-10-16T05:36:21;12.40;99.90
20182;DHT22;10250;50.756;6.172;2022-10-16T05:38:22;12.40;99.90
20182;DHT22;10250;50.756;6.172;2022-10-16T05:40:22;12.40;99.90
20182;DHT22;10250;50.756;6.172;2022-10-16T05:42:23;12.40;99.90
20182;DHT22;10250;50.756;6.172;2022-10-16T05:44:24;12.30;99.90
20182;DHT22;10250;50.756;6.172;2022-10-16T05:46:24;12.40;99.90
20182;DHT22;10250;50.756;6.172;2022-10-16T05:48:25;12.50;99.90
20182;DHT22;10250;50.756;6.172;2022-10-16T05:50:26;12.60;99.90
20182;DHT22;10250;50.756;6.172;2022-10-16T05:52:27;12.60;99.90
20182;DHT22;10250;50.756;6.172;2022-10-16T05:54:28;12.60;99.90
20182;DHT22;10250;50.756;6.172;2022-10-16T05:56:28;12.80;99.90
20182;DHT22;10250;50.756;6.172;2022-10-16T05:58:32;12.90;99.90
20182;DHT22;10250;50.756;6.172;2022-10-16T06:00:32;12.90;99.90
20182;DHT22;10250;50.756;6.172;2022-10-16T06:02:33;13.20;99.90
20182;DHT22;10250;50.756;6.172;2022-10-16T06:04:33;13.10;99.90
20182;DHT22;10250;50.756;6.172;2022-10-16T06:06:34;13.10;99.90
20182;DHT22;10250;50.756;6.172;2022-10-16T06:08:36;13.10;99.90
20182;DHT22;10250;50.756;6.172;2022-10-16T06:10:37;13.10;99.90
20182;DHT22;10250;50.756;6.172;2022-10-16T06:12:38;13.10;99.90
20182;DHT22;10250;50.756;6.172;2022-10-16T06:14:38;13.10;99.90
20182;DHT22;10250;50.756;6.172;2022-10-16T06:16:39;13.10;99.90
20182;DHT22;10250;50.756;6.172;2022-10-16T06:18:39;13.10;99.90
20182;DHT22;10250;50.756;6.172;2022-10-16T06:20:40;13.10;99.90
20182;DHT22;10250;50.756;6.172;2022-10-16T06:22:41;13.30;99.90
20182;DHT22;10250;50.756;6.172;2022-10-16T06:24:41;13.20;99.90
20182;DHT22;10250;50.756;6.172;2022-10-16T06:26:42;13.20;99.90
20182;DHT22;10250;50.756;6.172;2022-10-16T06:28:42;13.30;99.90
20182;DHT22;10250;50.756;6.172;2022-10-16T06:30:43;13.30;99.90
20182;DHT22;10250;50.756;6.172;2022-10-16T06:32:44;13.30;99.90
20182;DHT22;10250;50.756;6.172;2022-10-16T06:34:44;13.40;99.90
20182;DHT22;10250;50.756;6.172;2022-10-16T06:36:45;13.30;99.90
20182;DHT22;10250;50.756;6.172;2022-10-16T06:38:45;13.20;99.90
20182;DHT22;10250;50.756;6.172;2022-10-16T06:40:46;13.30;99.90
20182;DHT22;10250;50.756;6.172;2022-10-16T06:42:48;13.30;99.90
20182;DHT22;10250;50.756;6.172;2022-10-16T06:44:49;13.40;99.90
20182;DHT22;10250;50.756;6.172;2022-10-16T06:46:49;13.40;99.90
20182;DHT22;10250;50.756;6.172;2022-10-16T06:48:50;13.30;99.90
20182;DHT22;10250;50.756;6.172;2022-10-16T06:51:21;13.30;99.90
20182;DHT22;10250;50.756;6.172;2022-10-16T06:53:22;13.40;99.90
20182;DHT22;10250;50.756;6.172;2022-10-16T06:55:22;13.40;99.90
20182;DHT22;10250;50.756;6.172;2022-10-16T06:57:23;13.40;99.90
20182;DHT22;10250;50.756;6.172;2022-10-16T06:59:23;13.50;99.90
20182;DHT22;10250;50.756;6.172;2022-10-16T07:01:24;13.40;99.90
20182;DHT22;10250;50.756;6.172;2022-10-16T07:03:25;13.60;99.90
20182;DHT22;10250;50.756;6.172;2022-10-16T07:05:25;13.60;99.90
20182;DHT22;10250;50.756;6.172;2022-10-16T07:07:26;13.60;99.90
20182;DHT22;10250;50.756;6.172;2022-10-16T07:09:26;13.70;99.90
20182;DHT22;10250;50.756;6.172;2022-10-16T07:11:27;13.60;99.90
20182;DHT22;10250;50.756;6.172;2022-10-16T07:13:28;13.60;99.90
20182;DHT22;10250;50.756;6.172;2022-10-16T07:15:28;13.60;99.90
20182;DHT22;10250;50.756;6.172;2022-10-16T07:17:29;13.60;99.90
20182;DHT22;10250;50.756;6.172;2022-10-16T07:19:29;13.50;99.90
20182;DHT22;10250;50.756;6.172;2022-10-16T07:21:32;13.60;99.90
20182;DHT22;10250;50.756;6.172;2022-10-16T07:23:36;13.60;99.90
20182;DHT22;10250;50.756;6.172;2022-10-16T07:25:36;13.50;99.90
20182;DHT22;10250;50.756;6.172;2022-10-16T07:27:37;13.60;99.90
20182;DHT22;10250;50.756;6.172;2022-10-16T07:29:38;13.50;99.90
20182;DHT22;10250;50.756;6.172;2022-10-16T07:31:38;13.50;99.90
20182;DHT22;10250;50.756;6.172;2022-10-16T07:33:41;13.50;99.90
20182;DHT22;10250;50.756;6.172;2022-10-16T07:35:53;13.40;99.90
20182;DHT22;10250;50.756;6.172;2022-10-16T07:37:54;13.50;99.90
20182;DHT22;10250;50.756;6.172;2022-10-16T07:39:54;13.50;99.90
20182;DHT22;10250;50.756;6.172;2022-10-16T07:41:55;13.50;99.90
20182;DHT22;10250;50.756;6.172;2022-10-16T07:43:56;13.60;99.90
20182;DHT22;10250;50.756;6.172;2022-10-16T07:46:00;13.60;99.90
20182;DHT22;10250;50.756;6.172;2022-10-16T07:48:01;13.60;99.90
20182;DHT22;10250;50.756;6.172;2022-10-16T07:50:02;13.70;99.90
20182;DHT22;10250;50.756;6.172;2022-10-16T07:52:02;13.80;99.90
20182;DHT22;10250;50.756;6.172;2022-10-16T07:54:03;13.90;99.90
20182;DHT22;10250;50.756;6.172;2022-10-16T07:56:05;13.90;99.90
20182;DHT22;10250;50.756;6.172;2022-10-16T07:58:06;14.00;99.90
20182;DHT22;10250;50.756;6.172;2022-10-16T08:00:07;14.00;99.90
20182;DHT22;10250;50.756;6.172;2022-10-16T08:02:13;14.10;99.90
20182;DHT22;10250;50.756;6.172;2022-10-16T08:04:14;14.10;99.90
20182;DHT22;10250;50.756;6.172;2022-10-16T08:06:15;14.20;99.90
20182;DHT22;10250;50.756;6.172;2022-10-16T08:08:17;14.20;99.90
20182;DHT22;10250;50.756;6.172;2022-10-16T08:10:20;14.30;99.90
20182;DHT22;10250;50.756;6.172;2022-10-16T08:12:21;14.30;99.90
20182;DHT22;10250;50.756;6.172;2022-10-16T08:14:21;14.40;99.90
20182;DHT22;10250;50.756;6.172;2022-10-16T08:16:22;14.50;99.90
20182;DHT22;10250;50.756;6.172;2022-10-16T08:18:23;14.60;99.90
20182;DHT22;10250;50.756;6.172;2022-10-16T08:20:24;14.80;99.90
20182;DHT22;10250;50.756;6.172;2022-10-16T08:22:24;14.90;99.90
20182;DHT22;10250;50.756;6.172;2022-10-16T08:24:25;15.10;99.90
20182;DHT22;10250;50.756;6.172;2022-10-16T08:26:27;15.10;99.90
20182;DHT22;10250;50.756;6.172;2022-10-16T08:28:27;15.20;99.90
20182;DHT22;10250;50.756;6.172;2022-10-16T08:30:28;15.30;99.90
20182;DHT22;10250;50.756;6.172;2022-10-16T08:32:28;15.30;99.90
20182;DHT22;10250;50.756;6.172;2022-10-16T08:34:29;15.40;99.90
20182;DHT22;10250;50.756;6.172;2022-10-16T08:36:30;15.60;99.90
20182;DHT22;10250;50.756;6.172;2022-10-16T08:38:31;15.60;99.90
20182;DHT22;10250;50.756;6.172;2022-10-16T08:40:33;15.70;99.90
20182;DHT22;10250;50.756;6.172;2022-10-16T08:47:48;15.80;99.90
20182;DHT22;10250;50.756;6.172;2022-10-16T08:50:02;15.90;99.90
20182;DHT22;10250;50.756;6.172;2022-10-16T08:52:12;15.90;99.90
20182;DHT22;10250;50.756;6.172;2022-10-16T08:54:29;15.90;99.90
20182;DHT22;10250;50.756;6.172;2022-10-16T08:56:32;16.00;99.90
20182;DHT22;10250;50.756;6.172;2022-10-16T08:58:33;16.00;99.90
20182;DHT22;10250;50.756;6.172;2022-10-16T09:00:34;16.10;99.90
20182;DHT22;10250;50.756;6.172;2022-10-16T09:02:37;16.10;99.90
20182;DHT22;10250;50.756;6.172;2022-10-16T09:04:48;16.10;99.90
20182;DHT22;10250;50.756;6.172;2022-10-16T09:07:08;16.20;99.90
20182;DHT22;10250;50.756;6.172;2022-10-16T09:13:50;16.20;99.90
20182;DHT22;10250;50.756;6.172;2022-10-16T09:18:13;16.40;99.90
20182;DHT22;10250;50.756;6.172;2022-10-16T09:22:18;16.40;99.90
20182;DHT22;10250;50.756;6.172;2022-10-16T09:24:25;16.40;99.90
20182;DHT22;10250;50.756;6.172;2022-10-16T09:26:26;16.40;99.90
20182;DHT22;10250;50.756;6.172;2022-10-16T09:28:27;16.40;99.90
20182;DHT22;10250;50.756;6.172;2022-10-16T09:30:29;16.40;99.90
20182;DHT22;10250;50.756;6.172;2022-10-16T09:32:30;16.40;99.90
20182;DHT22;10250;50.756;6.172;2022-10-16T09:34:48;16.30;99.90
20182;DHT22;10250;50.756;6.172;2022-10-16T09:36:49;16.50;99.90
20182;DHT22;10250;50.756;6.172;2022-10-16T09:39:04;16.50;99.90
20182;DHT22;10250;50.756;6.172;2022-10-16T09:45:29;16.50;99.90
20182;DHT22;10250;50.756;6.172;2022-10-16T09:47:31;16.60;99.90
20182;DHT22;10250;50.756;6.172;2022-10-16T09:49:31;16.70;99.90
20182;DHT22;10250;50.756;6.172;2022-10-16T09:51:35;16.70;99.90
20182;DHT22;10250;50.756;6.172;2022-10-16T09:53:42;16.70;99.90
20182;DHT22;10250;50.756;6.172;2022-10-16T09:55:50;16.70;99.90
20182;DHT22;10250;50.756;6.172;2022-10-16T09:57:52;16.70;99.90
20182;DHT22;10250;50.756;6.172;2022-10-16T09:59:55;16.70;99.90
20182;DHT22;10250;50.756;6.172;2022-10-16T10:01:56;16.70;99.90
20182;DHT22;10250;50.756;6.172;2022-10-16T10:04:04;16.70;99.90
20182;DHT22;10250;50.756;6.172;2022-10-16T10:06:24;16.80;99.90
20182;DHT22;10250;50.756;6.172;2022-10-16T10:08:26;16.70;99.90
20182;DHT22;10250;50.756;6.172;2022-10-16T10:10:29;16.70;99.90
20182;DHT22;10250;50.756;6.172;2022-10-16T10:12:31;16.80;99.90
20182;DHT22;10250;50.756;6.172;2022-10-16T10:14:39;16.80;99.90
20182;DHT22;10250;50.756;6.172;2022-10-16T10:16:41;16.80;99.90
20182;DHT22;10250;50.756;6.172;2022-10-16T10:18:41;16.80;99.90
20182;DHT22;10250;50.756;6.172;2022-10-16T10:20:42;16.90;99.90
20182;DHT22;10250;50.756;6.172;2022-10-16T10:22:44;16.80;99.90
20182;DHT22;10250;50.756;6.172;2022-10-16T10:27:17;16.80;99.90
20182;DHT22;10250;50.756;6.172;2022-10-16T10:30:15;16.70;99.90
20182;DHT22;10250;50.756;6.172;2022-10-16T10:39:43;16.60;99.90
20182;DHT22;10250;50.756;6.172;2022-10-16T10:42:12;16.70;99.90
20182;DHT22;10250;50.756;6.172;2022-10-16T10:44:42;16.70;99.90
20182;DHT22;10250;50.756;6.172;2022-10-16T10:46:56;16.70;99.90
20182;DHT22;10250;50.756;6.172;2022-10-16T10:54:10;16.60;99.90
20182;DHT22;10250;50.756;6.172;2022-10-16T10:58:57;16.60;99.90
20182;DHT22;10250;50.756;6.172;2022-10-16T11:01:10;16.60;99.90
20182;DHT22;10250;50.756;6.172;2022-10-16T11:03:39;16.70;99.90
20182;DHT22;10250;50.756;6.172;2022-10-16T11:08:19;16.70;99.90
20182;DHT22;10250;50.756;6.172;2022-10-16T11:10:25;16.80;99.90
20182;DHT22;10250;50.756;6.172;2022-10-16T11:12:39;16.80;99.90
20182;DHT22;10250;50.756;6.172;2022-10-16T11:16:58;17.00;99.90
20182;DHT22;10250;50.756;6.172;2022-10-16T11:19:13;17.00;99.90
20182;DHT22;10250;50.756;6.172;2022-10-16T11:21:16;17.10;99.90
20182;DHT22;10250;50.756;6.172;2022-10-16T11:23:38;17.20;99.90
20182;DHT22;10250;50.756;6.172;2022-10-16T11:25:43;17.30;99.90
20182;DHT22;10250;50.756;6.172;2022-10-16T11:30:44;17.30;99.90
20182;DHT22;10250;50.756;6.172;2022-10-16T11:35:17;17.40;99.90
20182;DHT22;10250;50.756;6.172;2022-10-16T11:37:24;17.50;99.90
20182;DHT22;10250;50.756;6.172;2022-10-16T11:39:29;17.50;99.90
20182;DHT22;10250;50.756;6.172;2022-10-16T11:44:02;17.40;99.90
20182;DHT22;10250;50.756;6.172;2022-10-16T11:46:15;17.30;99.90
20182;DHT22;10250;50.756;6.172;2022-10-16T11:48:33;17.40;99.90
20182;DHT22;10250;50.756;6.172;2022-10-16T11:52:49;17.40;99.90
20182;DHT22;10250;50.756;6.172;2022-10-16T11:55:01;17.40;99.90
20182;DHT22;10250;50.756;6.172;2022-10-16T11:57:13;17.40;99.90
20182;DHT22;10250;50.756;6.172;2022-10-16T12:00:05;17.50;99.90
20182;DHT22;10250;50.756;6.172;2022-10-16T12:02:38;17.50;99.90
20182;DHT22;10250;50.756;6.172;2022-10-16T12:04:36;17.60;99.90
20182;DHT22;10250;50.756;6.172;2022-10-16T12:08:52;17.60;99.90
20182;DHT22;10250;50.756;6.172;2022-10-16T12:11:07;17.60;99.90
20182;DHT22;10250;50.756;6.172;2022-10-16T12:15:33;17.60;99.90
20182;DHT22;10250;50.756;6.172;2022-10-16T12:17:37;17.50;99.90
20182;DHT22;10250;50.756;6.172;2022-10-16T12:19:38;17.60;99.90
20182;DHT22;10250;50.756;6.172;2022-10-16T12:21:39;17.60;99.90
20182;DHT22;10250;50.756;6.172;2022-10-16T12:25:56;17.60;99.90
20182;DHT22;10250;50.756;6.172;2022-10-16T12:30:20;17.60;99.90
20182;DHT22;10250;50.756;6.172;2022-10-16T12:32:34;17.60;99.90
20182;DHT22;10250;50.756;6.172;2022-10-16T12:34:37;17.50;99.90
20182;DHT22;10250;50.756;6.172;2022-10-16T12:36:39;17.50;99.90
20182;DHT22;10250;50.756;6.172;2022-10-16T12:38:51;17.50;99.90
20182;DHT22;10250;50.756;6.172;2022-10-16T12:42:59;17.50;99.90
20182;DHT22;10250;50.756;6.172;2022-10-16T12:45:00;17.50;99.90
20182;DHT22;10250;50.756;6.172;2022-10-16T12:47:01;17.50;99.90
20182;DHT22;10250;50.756;6.172;2022-10-16T12:51:35;17.40;99.90
20182;DHT22;10250;50.756;6.172;2022-10-16T12:53:36;17.30;99.90
20182;DHT22;10250;50.756;6.172;2022-10-16T12:55:48;17.30;99.90
20182;DHT22;10250;50.756;6.172;2022-10-16T13:02:49;17.50;99.90
20182;DHT22;10250;50.756;6.172;2022-10-16T13:17:15;17.50;99.90
20182;DHT22;10250;50.756;6.172;2022-10-16T13:28:15;17.40;99.90
20182;DHT22;10250;50.756;6.172;2022-10-16T13:30:26;17.40;99.90
20182;DHT22;10250;50.756;6.172;2022-10-16T13:32:31;17.50;99.90
20182;DHT22;10250;50.756;6.172;2022-10-16T13:34:32;17.50;99.90
20182;DHT22;10250;50.756;6.172;2022-10-16T13:36:49;17.60;99.90
20182;DHT22;10250;50.756;6.172;2022-10-16T13:39:14;17.60;99.90
20182;DHT22;10250;50.756;6.172;2022-10-16T13:41:18;17.70;99.90
20182;DHT22;10250;50.756;6.172;2022-10-16T13:43:24;17.80;99.90
20182;DHT22;10250;50.756;6.172;2022-10-16T13:45:26;17.80;99.90
20182;DHT22;10250;50.756;6.172;2022-10-16T13:47:28;17.80;99.90
20182;DHT22;10250;50.756;6.172;2022-10-16T13:49:29;17.80;99.90
20182;DHT22;10250;50.756;6.172;2022-10-16T13:51:31;17.90;99.90
20182;DHT22;10250;50.756;6.172;2022-10-16T13:53:34;17.80;99.90
20182;DHT22;10250;50.756;6.172;2022-10-16T13:55:36;17.70;99.90
20182;DHT22;10250;50.756;6.172;2022-10-16T13:57:36;17.60;99.90
20182;DHT22;10250;50.756;6.172;2022-10-16T13:59:37;17.70;99.90
20182;DHT22;10250;50.756;6.172;2022-10-16T14:01:43;17.70;99.90
20182;DHT22;10250;50.756;6.172;2022-10-16T14:03:45;17.60;99.90
20182;DHT22;10250;50.756;6.172;2022-10-16T14:05:52;17.60;99.90
20182;DHT22;10250;50.756;6.172;2022-10-16T14:07:54;17.50;99.90
20182;DHT22;10250;50.756;6.172;2022-10-16T14:09:56;17.50;99.90
20182;DHT22;10250;50.756;6.172;2022-10-16T14:12:01;17.40;99.90
20182;DHT22;10250;50.756;6.172;2022-10-16T14:14:03;17.40;99.90
20182;DHT22;10250;50.756;6.172;2022-10-16T14:16:07;17.40;99.90
20182;DHT22;10250;50.756;6.172;2022-10-16T14:18:19;17.40;99.90
20182;DHT22;10250;50.756;6.172;2022-10-16T14:20:25;17.40;99.90
20182;DHT22;10250;50.756;6.172;2022-10-16T14:22:40;17.50;99.90
20182;DHT22;10250;50.756;6.172;2022-10-16T14:24:41;17.50;99.90
20182;DHT22;10250;50.756;6.172;2022-10-16T14:26:44;17.50;99.90
20182;DHT22;10250;50.756;6.172;2022-10-16T14:28:46;17.50;99.90
20182;DHT22;10250;50.756;6.172;2022-10-16T14:32:58;17.60;99.90
20182;DHT22;10250;50.756;6.172;2022-10-16T14:34:59;17.50;99.90
20182;DHT22;10250;50.756;6.172;2022-10-16T14:37:06;17.50;99.90
20182;DHT22;10250;50.756;6.172;2022-10-16T14:39:22;17.50;99.90
20182;DHT22;10250;50.756;6.172;2022-10-16T14:41:24;17.50;99.90
20182;DHT22;10250;50.756;6.172;2022-10-16T14:43:40;17.50;99.90
20182;DHT22;10250;50.756;6.172;2022-10-16T14:45:41;17.50;99.90
20182;DHT22;10250;50.756;6.172;2022-10-16T14:47:52;17.50;99.90
20182;DHT22;10250;50.756;6.172;2022-10-16T14:49:54;17.50;99.90
20182;DHT22;10250;50.756;6.172;2022-10-16T14:51:57;17.50;99.90